<?xml version="1.0" encoding="utf-8"?>
<gpx xmlns:xsi="http://www.w3.org/2001/XMLSchema-instance" xmlns:xsd="http://www.w3.org/2001/XMLSchema" version="1.1" creator="Shapelink.com" xmlns="http://www.topografix.com/GPX/1/1" xmlns:gpxtpx="http://www.garmin.com/xmlschemas/TrackPointExtension/v1">
  <metadata>
    <name>Kører 3.48 km, 2011-07-02</name>
    <desc></desc>
    <author><name>Jojje Borssén</name></author> 
    <time>2011-07-02T11:04:58Z</time>
  </metadata>
  <trk>
    <name>Kører 3.48 km, 2011-07-02</name>
    <trkseg>
      <trkpt lat="60.898902" lon="15.138723">
        <ele>214.185</ele>
        <time>2011-07-02T11:04:58Z</time>
      </trkpt>
      <trkpt lat="60.898935" lon="15.138926">
        <ele>211.827</ele>
        <time>2011-07-02T11:05:08Z</time>
      </trkpt>
      <trkpt lat="60.898962" lon="15.138999">
        <ele>211.786</ele>
        <time>2011-07-02T11:05:14Z</time>
      </trkpt>
      <trkpt lat="60.89903" lon="15.139276">
        <ele>211.871</ele>
        <time>2011-07-02T11:05:27Z</time>
      </trkpt>
      <trkpt lat="60.89909" lon="15.139465">
        <ele>211.822</ele>
        <time>2011-07-02T11:05:33Z</time>
      </trkpt>
      <trkpt lat="60.899157" lon="15.139726">
        <ele>211.787</ele>
        <time>2011-07-02T11:05:40Z</time>
      </trkpt>
      <trkpt lat="60.899222" lon="15.139949">
        <ele>211.932</ele>
        <time>2011-07-02T11:05:45Z</time>
      </trkpt>
      <trkpt lat="60.899308" lon="15.140232">
        <ele>212.1</ele>
        <time>2011-07-02T11:05:52Z</time>
      </trkpt>
      <trkpt lat="60.899388" lon="15.140502">
        <ele>212.053</ele>
        <time>2011-07-02T11:05:58Z</time>
      </trkpt>
      <trkpt lat="60.899458" lon="15.140765">
        <ele>212.458</ele>
        <time>2011-07-02T11:06:04Z</time>
      </trkpt>
      <trkpt lat="60.899516" lon="15.141064">
        <ele>212.494</ele>
        <time>2011-07-02T11:06:11Z</time>
      </trkpt>
      <trkpt lat="60.899603" lon="15.141345">
        <ele>212.793</ele>
        <time>2011-07-02T11:06:18Z</time>
      </trkpt>
      <trkpt lat="60.899658" lon="15.141605">
        <ele>212.978</ele>
        <time>2011-07-02T11:06:24Z</time>
      </trkpt>
      <trkpt lat="60.899669" lon="15.141858">
        <ele>213.063</ele>
        <time>2011-07-02T11:06:29Z</time>
      </trkpt>
      <trkpt lat="60.899712" lon="15.142054">
        <ele>213.136</ele>
        <time>2011-07-02T11:06:33Z</time>
      </trkpt>
      <trkpt lat="60.899807" lon="15.142283">
        <ele>213.007</ele>
        <time>2011-07-02T11:06:39Z</time>
      </trkpt>
      <trkpt lat="60.89987" lon="15.142551">
        <ele>213.377</ele>
        <time>2011-07-02T11:06:45Z</time>
      </trkpt>
      <trkpt lat="60.899868" lon="15.14278">
        <ele>213.374</ele>
        <time>2011-07-02T11:06:51Z</time>
      </trkpt>
      <trkpt lat="60.899896" lon="15.143126">
        <ele>213.374</ele>
        <time>2011-07-02T11:06:59Z</time>
      </trkpt>
      <trkpt lat="60.899934" lon="15.143528">
        <ele>213.678</ele>
        <time>2011-07-02T11:07:06Z</time>
      </trkpt>
      <trkpt lat="60.89999" lon="15.143825">
        <ele>214.543</ele>
        <time>2011-07-02T11:07:12Z</time>
      </trkpt>
      <trkpt lat="60.900055" lon="15.144142">
        <ele>214.448</ele>
        <time>2011-07-02T11:07:18Z</time>
      </trkpt>
      <trkpt lat="60.900096" lon="15.144488">
        <ele>215.063</ele>
        <time>2011-07-02T11:07:25Z</time>
      </trkpt>
      <trkpt lat="60.900115" lon="15.14469">
        <ele>215.468</ele>
        <time>2011-07-02T11:07:30Z</time>
      </trkpt>
      <trkpt lat="60.900116" lon="15.144761">
        <ele>215.401</ele>
        <time>2011-07-02T11:07:32Z</time>
      </trkpt>
      <trkpt lat="60.90017" lon="15.145036">
        <ele>215.187</ele>
        <time>2011-07-02T11:07:39Z</time>
      </trkpt>
      <trkpt lat="60.900203" lon="15.145138">
        <ele>215.391</ele>
        <time>2011-07-02T11:07:41Z</time>
      </trkpt>
      <trkpt lat="60.900268" lon="15.14549">
        <ele>215.38</ele>
        <time>2011-07-02T11:07:49Z</time>
      </trkpt>
      <trkpt lat="60.900281" lon="15.145527">
        <ele>215.301</ele>
        <time>2011-07-02T11:07:50Z</time>
      </trkpt>
      <trkpt lat="60.900312" lon="15.145614">
        <ele>215.258</ele>
        <time>2011-07-02T11:07:52Z</time>
      </trkpt>
      <trkpt lat="60.900324" lon="15.146033">
        <ele>215.294</ele>
        <time>2011-07-02T11:07:59Z</time>
      </trkpt>
      <trkpt lat="60.90035" lon="15.146259">
        <ele>215.421</ele>
        <time>2011-07-02T11:08:03Z</time>
      </trkpt>
      <trkpt lat="60.900358" lon="15.146349">
        <ele>215.466</ele>
        <time>2011-07-02T11:08:05Z</time>
      </trkpt>
      <trkpt lat="60.900429" lon="15.146633">
        <ele>215.749</ele>
        <time>2011-07-02T11:08:11Z</time>
      </trkpt>
      <trkpt lat="60.900464" lon="15.146706">
        <ele>215.842</ele>
        <time>2011-07-02T11:08:13Z</time>
      </trkpt>
      <trkpt lat="60.90058" lon="15.146916">
        <ele>216.135</ele>
        <time>2011-07-02T11:08:19Z</time>
      </trkpt>
      <trkpt lat="60.900704" lon="15.147154">
        <ele>216.882</ele>
        <time>2011-07-02T11:08:25Z</time>
      </trkpt>
      <trkpt lat="60.900781" lon="15.147315">
        <ele>216.984</ele>
        <time>2011-07-02T11:08:30Z</time>
      </trkpt>
      <trkpt lat="60.900854" lon="15.147498">
        <ele>216.938</ele>
        <time>2011-07-02T11:08:35Z</time>
      </trkpt>
      <trkpt lat="60.90093" lon="15.147605">
        <ele>217.601</ele>
        <time>2011-07-02T11:08:39Z</time>
      </trkpt>
      <trkpt lat="60.900965" lon="15.147787">
        <ele>218.301</ele>
        <time>2011-07-02T11:08:43Z</time>
      </trkpt>
      <trkpt lat="60.901032" lon="15.148096">
        <ele>220.49</ele>
        <time>2011-07-02T11:08:50Z</time>
      </trkpt>
      <trkpt lat="60.901102" lon="15.148418">
        <ele>222.819</ele>
        <time>2011-07-02T11:08:58Z</time>
      </trkpt>
      <trkpt lat="60.901174" lon="15.148666">
        <ele>223.341</ele>
        <time>2011-07-02T11:09:04Z</time>
      </trkpt>
      <trkpt lat="60.90126" lon="15.148837">
        <ele>222.662</ele>
        <time>2011-07-02T11:09:10Z</time>
      </trkpt>
      <trkpt lat="60.901413" lon="15.14889">
        <ele>220.131</ele>
        <time>2011-07-02T11:09:17Z</time>
      </trkpt>
      <trkpt lat="60.901493" lon="15.148993">
        <ele>219.634</ele>
        <time>2011-07-02T11:09:23Z</time>
      </trkpt>
      <trkpt lat="60.90151" lon="15.149009">
        <ele>219.596</ele>
        <time>2011-07-02T11:09:25Z</time>
      </trkpt>
      <trkpt lat="60.901585" lon="15.149061">
        <ele>219.919</ele>
        <time>2011-07-02T11:09:31Z</time>
      </trkpt>
      <trkpt lat="60.901725" lon="15.149022">
        <ele>222.616</ele>
        <time>2011-07-02T11:09:38Z</time>
      </trkpt>
      <trkpt lat="60.901745" lon="15.149055">
        <ele>223.335</ele>
        <time>2011-07-02T11:09:40Z</time>
      </trkpt>
      <trkpt lat="60.901811" lon="15.149204">
        <ele>223.161</ele>
        <time>2011-07-02T11:09:47Z</time>
      </trkpt>
      <trkpt lat="60.901939" lon="15.149323">
        <ele>220.246</ele>
        <time>2011-07-02T11:09:53Z</time>
      </trkpt>
      <trkpt lat="60.902101" lon="15.149416">
        <ele>218.968</ele>
        <time>2011-07-02T11:09:58Z</time>
      </trkpt>
      <trkpt lat="60.902271" lon="15.149543">
        <ele>218.579</ele>
        <time>2011-07-02T11:10:04Z</time>
      </trkpt>
      <trkpt lat="60.902358" lon="15.149593">
        <ele>218.158</ele>
        <time>2011-07-02T11:10:07Z</time>
      </trkpt>
      <trkpt lat="60.902547" lon="15.149651">
        <ele>218.69</ele>
        <time>2011-07-02T11:10:14Z</time>
      </trkpt>
      <trkpt lat="60.902664" lon="15.149649">
        <ele>218.723</ele>
        <time>2011-07-02T11:10:19Z</time>
      </trkpt>
      <trkpt lat="60.902803" lon="15.149628">
        <ele>219.648</ele>
        <time>2011-07-02T11:10:24Z</time>
      </trkpt>
      <trkpt lat="60.902943" lon="15.14965">
        <ele>221.044</ele>
        <time>2011-07-02T11:10:30Z</time>
      </trkpt>
      <trkpt lat="60.903044" lon="15.149822">
        <ele>222.632</ele>
        <time>2011-07-02T11:10:36Z</time>
      </trkpt>
      <trkpt lat="60.903123" lon="15.149958">
        <ele>222.123</ele>
        <time>2011-07-02T11:10:42Z</time>
      </trkpt>
      <trkpt lat="60.903194" lon="15.150131">
        <ele>220.436</ele>
        <time>2011-07-02T11:10:47Z</time>
      </trkpt>
      <trkpt lat="60.903221" lon="15.150161">
        <ele>220.237</ele>
        <time>2011-07-02T11:10:48Z</time>
      </trkpt>
      <trkpt lat="60.903259" lon="15.150226">
        <ele>220.265</ele>
        <time>2011-07-02T11:10:50Z</time>
      </trkpt>
      <trkpt lat="60.903336" lon="15.150456">
        <ele>221.284</ele>
        <time>2011-07-02T11:10:56Z</time>
      </trkpt>
      <trkpt lat="60.903401" lon="15.150647">
        <ele>221.902</ele>
        <time>2011-07-02T11:11:01Z</time>
      </trkpt>
      <trkpt lat="60.90343" lon="15.150788">
        <ele>222.084</ele>
        <time>2011-07-02T11:11:04Z</time>
      </trkpt>
      <trkpt lat="60.903517" lon="15.151017">
        <ele>223.412</ele>
        <time>2011-07-02T11:11:10Z</time>
      </trkpt>
      <trkpt lat="60.903558" lon="15.151187">
        <ele>224.702</ele>
        <time>2011-07-02T11:11:14Z</time>
      </trkpt>
      <trkpt lat="60.903622" lon="15.151337">
        <ele>225.685</ele>
        <time>2011-07-02T11:11:18Z</time>
      </trkpt>
      <trkpt lat="60.903743" lon="15.151642">
        <ele>224.471</ele>
        <time>2011-07-02T11:11:26Z</time>
      </trkpt>
      <trkpt lat="60.903872" lon="15.151867">
        <ele>223.448</ele>
        <time>2011-07-02T11:11:32Z</time>
      </trkpt>
      <trkpt lat="60.903963" lon="15.152084">
        <ele>223.81</ele>
        <time>2011-07-02T11:11:37Z</time>
      </trkpt>
      <trkpt lat="60.903999" lon="15.152371">
        <ele>224.237</ele>
        <time>2011-07-02T11:11:43Z</time>
      </trkpt>
      <trkpt lat="60.904034" lon="15.152689">
        <ele>224.762</ele>
        <time>2011-07-02T11:11:49Z</time>
      </trkpt>
      <trkpt lat="60.90406" lon="15.153075">
        <ele>225.437</ele>
        <time>2011-07-02T11:11:55Z</time>
      </trkpt>
      <trkpt lat="60.904104" lon="15.153429">
        <ele>226.182</ele>
        <time>2011-07-02T11:12:02Z</time>
      </trkpt>
      <trkpt lat="60.904133" lon="15.153673">
        <ele>226.344</ele>
        <time>2011-07-02T11:12:07Z</time>
      </trkpt>
      <trkpt lat="60.904187" lon="15.153851">
        <ele>226.536</ele>
        <time>2011-07-02T11:12:12Z</time>
      </trkpt>
      <trkpt lat="60.904306" lon="15.154043">
        <ele>225.712</ele>
        <time>2011-07-02T11:12:18Z</time>
      </trkpt>
      <trkpt lat="60.904401" lon="15.154177">
        <ele>225.592</ele>
        <time>2011-07-02T11:12:23Z</time>
      </trkpt>
      <trkpt lat="60.904459" lon="15.154243">
        <ele>225.906</ele>
        <time>2011-07-02T11:12:26Z</time>
      </trkpt>
      <trkpt lat="60.904558" lon="15.154473">
        <ele>225.68</ele>
        <time>2011-07-02T11:12:33Z</time>
      </trkpt>
      <trkpt lat="60.904667" lon="15.154758">
        <ele>224.811</ele>
        <time>2011-07-02T11:12:39Z</time>
      </trkpt>
      <trkpt lat="60.904809" lon="15.155">
        <ele>225.978</ele>
        <time>2011-07-02T11:12:46Z</time>
      </trkpt>
      <trkpt lat="60.904978" lon="15.155218">
        <ele>226.983</ele>
        <time>2011-07-02T11:12:54Z</time>
      </trkpt>
      <trkpt lat="60.905069" lon="15.155465">
        <ele>226.897</ele>
        <time>2011-07-02T11:13:00Z</time>
      </trkpt>
      <trkpt lat="60.905161" lon="15.155735">
        <ele>226.213</ele>
        <time>2011-07-02T11:13:07Z</time>
      </trkpt>
      <trkpt lat="60.905224" lon="15.155979">
        <ele>225.739</ele>
        <time>2011-07-02T11:13:13Z</time>
      </trkpt>
      <trkpt lat="60.905318" lon="15.156265">
        <ele>225.487</ele>
        <time>2011-07-02T11:13:20Z</time>
      </trkpt>
      <trkpt lat="60.905395" lon="15.156518">
        <ele>225.859</ele>
        <time>2011-07-02T11:13:26Z</time>
      </trkpt>
      <trkpt lat="60.905451" lon="15.156714">
        <ele>226.608</ele>
        <time>2011-07-02T11:13:31Z</time>
      </trkpt>
      <trkpt lat="60.905533" lon="15.157058">
        <ele>225.304</ele>
        <time>2011-07-02T11:13:39Z</time>
      </trkpt>
      <trkpt lat="60.9056" lon="15.15739">
        <ele>225.086</ele>
        <time>2011-07-02T11:13:46Z</time>
      </trkpt>
      <trkpt lat="60.905673" lon="15.157633">
        <ele>226.436</ele>
        <time>2011-07-02T11:13:52Z</time>
      </trkpt>
      <trkpt lat="60.905777" lon="15.157913">
        <ele>228.494</ele>
        <time>2011-07-02T11:13:59Z</time>
      </trkpt>
      <trkpt lat="60.905861" lon="15.158017">
        <ele>228.983</ele>
        <time>2011-07-02T11:14:04Z</time>
      </trkpt>
      <trkpt lat="60.905905" lon="15.158061">
        <ele>229.189</ele>
        <time>2011-07-02T11:14:08Z</time>
      </trkpt>
      <trkpt lat="60.905907" lon="15.158165">
        <ele>228.983</ele>
        <time>2011-07-02T11:16:27Z</time>
      </trkpt>
      <trkpt lat="60.905949" lon="15.158374">
        <ele>228.51</ele>
        <time>2011-07-02T11:16:36Z</time>
      </trkpt>
      <trkpt lat="60.905969" lon="15.158514">
        <ele>226.59</ele>
        <time>2011-07-02T11:16:44Z</time>
      </trkpt>
      <trkpt lat="60.90596" lon="15.158542">
        <ele>226.294</ele>
        <time>2011-07-02T11:16:45Z</time>
      </trkpt>
      <trkpt lat="60.905908" lon="15.158726">
        <ele>225.378</ele>
        <time>2011-07-02T11:16:53Z</time>
      </trkpt>
      <trkpt lat="60.905806" lon="15.159027">
        <ele>225.643</ele>
        <time>2011-07-02T11:17:19Z</time>
      </trkpt>
      <trkpt lat="60.905782" lon="15.159037">
        <ele>225.703</ele>
        <time>2011-07-02T11:17:23Z</time>
      </trkpt>
      <trkpt lat="60.905751" lon="15.158967">
        <ele>225.559</ele>
        <time>2011-07-02T11:17:44Z</time>
      </trkpt>
      <trkpt lat="60.905724" lon="15.15902">
        <ele>225.618</ele>
        <time>2011-07-02T11:17:54Z</time>
      </trkpt>
      <trkpt lat="60.905669" lon="15.159082">
        <ele>226.091</ele>
        <time>2011-07-02T11:18:02Z</time>
      </trkpt>
      <trkpt lat="60.905614" lon="15.159107">
        <ele>226.246</ele>
        <time>2011-07-02T11:18:07Z</time>
      </trkpt>
      <trkpt lat="60.905565" lon="15.15913">
        <ele>226.074</ele>
        <time>2011-07-02T11:18:15Z</time>
      </trkpt>
      <trkpt lat="60.905531" lon="15.159155">
        <ele>226.006</ele>
        <time>2011-07-02T11:18:18Z</time>
      </trkpt>
      <trkpt lat="60.905451" lon="15.159214">
        <ele>225.832</ele>
        <time>2011-07-02T11:18:23Z</time>
      </trkpt>
      <trkpt lat="60.905342" lon="15.15928">
        <ele>225.985</ele>
        <time>2011-07-02T11:18:29Z</time>
      </trkpt>
      <trkpt lat="60.905232" lon="15.159273">
        <ele>226.314</ele>
        <time>2011-07-02T11:18:35Z</time>
      </trkpt>
      <trkpt lat="60.905194" lon="15.159223">
        <ele>226.759</ele>
        <time>2011-07-02T11:18:38Z</time>
      </trkpt>
      <trkpt lat="60.905084" lon="15.159191">
        <ele>227.031</ele>
        <time>2011-07-02T11:18:45Z</time>
      </trkpt>
      <trkpt lat="60.905069" lon="15.159195">
        <ele>226.873</ele>
        <time>2011-07-02T11:18:46Z</time>
      </trkpt>
      <trkpt lat="60.905026" lon="15.159173">
        <ele>226.465</ele>
        <time>2011-07-02T11:18:50Z</time>
      </trkpt>
      <trkpt lat="60.904946" lon="15.159106">
        <ele>225.579</ele>
        <time>2011-07-02T11:18:56Z</time>
      </trkpt>
      <trkpt lat="60.904864" lon="15.159144">
        <ele>226.208</ele>
        <time>2011-07-02T11:19:02Z</time>
      </trkpt>
      <trkpt lat="60.904754" lon="15.159215">
        <ele>226.302</ele>
        <time>2011-07-02T11:19:09Z</time>
      </trkpt>
      <trkpt lat="60.904687" lon="15.15926">
        <ele>226.098</ele>
        <time>2011-07-02T11:19:13Z</time>
      </trkpt>
      <trkpt lat="60.90456" lon="15.15939">
        <ele>227.008</ele>
        <time>2011-07-02T11:19:21Z</time>
      </trkpt>
      <trkpt lat="60.90446" lon="15.159419">
        <ele>223.835</ele>
        <time>2011-07-02T11:19:28Z</time>
      </trkpt>
      <trkpt lat="60.904445" lon="15.159425">
        <ele>223.49</ele>
        <time>2011-07-02T11:19:29Z</time>
      </trkpt>
      <trkpt lat="60.904317" lon="15.159457">
        <ele>223.832</ele>
        <time>2011-07-02T11:19:35Z</time>
      </trkpt>
      <trkpt lat="60.904242" lon="15.159519">
        <ele>224.348</ele>
        <time>2011-07-02T11:19:39Z</time>
      </trkpt>
      <trkpt lat="60.904114" lon="15.159634">
        <ele>225.203</ele>
        <time>2011-07-02T11:19:47Z</time>
      </trkpt>
      <trkpt lat="60.904059" lon="15.159653">
        <ele>225.416</ele>
        <time>2011-07-02T11:19:51Z</time>
      </trkpt>
      <trkpt lat="60.903946" lon="15.15971">
        <ele>225.553</ele>
        <time>2011-07-02T11:19:58Z</time>
      </trkpt>
      <trkpt lat="60.903875" lon="15.159757">
        <ele>225.706</ele>
        <time>2011-07-02T11:20:03Z</time>
      </trkpt>
      <trkpt lat="60.903841" lon="15.159821">
        <ele>225.804</ele>
        <time>2011-07-02T11:20:07Z</time>
      </trkpt>
      <trkpt lat="60.903725" lon="15.159884">
        <ele>225.928</ele>
        <time>2011-07-02T11:20:14Z</time>
      </trkpt>
      <trkpt lat="60.903645" lon="15.159966">
        <ele>225.175</ele>
        <time>2011-07-02T11:20:20Z</time>
      </trkpt>
      <trkpt lat="60.903553" lon="15.160062">
        <ele>224.176</ele>
        <time>2011-07-02T11:20:25Z</time>
      </trkpt>
      <trkpt lat="60.903496" lon="15.160068">
        <ele>223.925</ele>
        <time>2011-07-02T11:20:28Z</time>
      </trkpt>
      <trkpt lat="60.903365" lon="15.160189">
        <ele>223.992</ele>
        <time>2011-07-02T11:20:34Z</time>
      </trkpt>
      <trkpt lat="60.903299" lon="15.16023">
        <ele>224.152</ele>
        <time>2011-07-02T11:20:37Z</time>
      </trkpt>
      <trkpt lat="60.903225" lon="15.160249">
        <ele>223.977</ele>
        <time>2011-07-02T11:20:40Z</time>
      </trkpt>
      <trkpt lat="60.903076" lon="15.160247">
        <ele>223.752</ele>
        <time>2011-07-02T11:20:48Z</time>
      </trkpt>
      <trkpt lat="60.902962" lon="15.160157">
        <ele>223.68</ele>
        <time>2011-07-02T11:20:56Z</time>
      </trkpt>
      <trkpt lat="60.902879" lon="15.160059">
        <ele>223.343</ele>
        <time>2011-07-02T11:21:03Z</time>
      </trkpt>
      <trkpt lat="60.902788" lon="15.160011">
        <ele>222.873</ele>
        <time>2011-07-02T11:21:10Z</time>
      </trkpt>
      <trkpt lat="60.9027" lon="15.159912">
        <ele>222.975</ele>
        <time>2011-07-02T11:21:18Z</time>
      </trkpt>
      <trkpt lat="60.902634" lon="15.159766">
        <ele>223.306</ele>
        <time>2011-07-02T11:21:25Z</time>
      </trkpt>
      <trkpt lat="60.90256" lon="15.159676">
        <ele>223.473</ele>
        <time>2011-07-02T11:21:31Z</time>
      </trkpt>
      <trkpt lat="60.902461" lon="15.15955">
        <ele>222.942</ele>
        <time>2011-07-02T11:21:40Z</time>
      </trkpt>
      <trkpt lat="60.902347" lon="15.159358">
        <ele>223.071</ele>
        <time>2011-07-02T11:21:47Z</time>
      </trkpt>
      <trkpt lat="60.902314" lon="15.159321">
        <ele>223.442</ele>
        <time>2011-07-02T11:21:49Z</time>
      </trkpt>
      <trkpt lat="60.902268" lon="15.159299">
        <ele>223.786</ele>
        <time>2011-07-02T11:21:53Z</time>
      </trkpt>
      <trkpt lat="60.902175" lon="15.159121">
        <ele>223.012</ele>
        <time>2011-07-02T11:22:02Z</time>
      </trkpt>
      <trkpt lat="60.902104" lon="15.15894">
        <ele>222.425</ele>
        <time>2011-07-02T11:22:08Z</time>
      </trkpt>
      <trkpt lat="60.902047" lon="15.158919">
        <ele>222.032</ele>
        <time>2011-07-02T11:22:11Z</time>
      </trkpt>
      <trkpt lat="60.901966" lon="15.158861">
        <ele>221.9</ele>
        <time>2011-07-02T11:22:15Z</time>
      </trkpt>
      <trkpt lat="60.901862" lon="15.158793">
        <ele>221.91</ele>
        <time>2011-07-02T11:22:20Z</time>
      </trkpt>
      <trkpt lat="60.901694" lon="15.158708">
        <ele>221.998</ele>
        <time>2011-07-02T11:22:27Z</time>
      </trkpt>
      <trkpt lat="60.901658" lon="15.158693">
        <ele>222.038</ele>
        <time>2011-07-02T11:22:30Z</time>
      </trkpt>
      <trkpt lat="60.901608" lon="15.158701">
        <ele>221.891</ele>
        <time>2011-07-02T11:22:35Z</time>
      </trkpt>
      <trkpt lat="60.901598" lon="15.158692">
        <ele>221.832</ele>
        <time>2011-07-02T11:22:37Z</time>
      </trkpt>
      <trkpt lat="60.901583" lon="15.158608">
        <ele>221.782</ele>
        <time>2011-07-02T11:22:43Z</time>
      </trkpt>
      <trkpt lat="60.901472" lon="15.158329">
        <ele>221.404</ele>
        <time>2011-07-02T11:23:01Z</time>
      </trkpt>
      <trkpt lat="60.901472" lon="15.158331">
        <ele>221.315</ele>
        <time>2011-07-02T11:23:02Z</time>
      </trkpt>
      <trkpt lat="60.901484" lon="15.1584">
        <ele>221.309</ele>
        <time>2011-07-02T11:23:12Z</time>
      </trkpt>
      <trkpt lat="60.901504" lon="15.158317">
        <ele>221.561</ele>
        <time>2011-07-02T11:23:42Z</time>
      </trkpt>
      <trkpt lat="60.901402" lon="15.158255">
        <ele>222.15</ele>
        <time>2011-07-02T11:25:16Z</time>
      </trkpt>
      <trkpt lat="60.901338" lon="15.158249">
        <ele>222.061</ele>
        <time>2011-07-02T11:25:22Z</time>
      </trkpt>
      <trkpt lat="60.90133" lon="15.158256">
        <ele>222.09</ele>
        <time>2011-07-02T11:25:23Z</time>
      </trkpt>
      <trkpt lat="60.901314" lon="15.158325">
        <ele>222.293</ele>
        <time>2011-07-02T11:25:27Z</time>
      </trkpt>
      <trkpt lat="60.901279" lon="15.158524">
        <ele>222.485</ele>
        <time>2011-07-02T11:25:36Z</time>
      </trkpt>
      <trkpt lat="60.901281" lon="15.158538">
        <ele>222.51</ele>
        <time>2011-07-02T11:25:38Z</time>
      </trkpt>
      <trkpt lat="60.901288" lon="15.158696">
        <ele>222.344</ele>
        <time>2011-07-02T11:25:49Z</time>
      </trkpt>
      <trkpt lat="60.90131" lon="15.158552">
        <ele>222.421</ele>
        <time>2011-07-02T11:25:55Z</time>
      </trkpt>
      <trkpt lat="60.901321" lon="15.158651">
        <ele>222.496</ele>
        <time>2011-07-02T11:26:00Z</time>
      </trkpt>
      <trkpt lat="60.90131" lon="15.158841">
        <ele>222.761</ele>
        <time>2011-07-02T11:26:08Z</time>
      </trkpt>
      <trkpt lat="60.901324" lon="15.158997">
        <ele>223.079</ele>
        <time>2011-07-02T11:26:16Z</time>
      </trkpt>
      <trkpt lat="60.901332" lon="15.159138">
        <ele>223.459</ele>
        <time>2011-07-02T11:26:29Z</time>
      </trkpt>
      <trkpt lat="60.901331" lon="15.159062">
        <ele>223.074</ele>
        <time>2011-07-02T11:26:36Z</time>
      </trkpt>
      <trkpt lat="60.901318" lon="15.159181">
        <ele>223.209</ele>
        <time>2011-07-02T11:26:41Z</time>
      </trkpt>
      <trkpt lat="60.901351" lon="15.159349">
        <ele>223.719</ele>
        <time>2011-07-02T11:26:51Z</time>
      </trkpt>
      <trkpt lat="60.901377" lon="15.159533">
        <ele>223.906</ele>
        <time>2011-07-02T11:26:58Z</time>
      </trkpt>
      <trkpt lat="60.901449" lon="15.15971">
        <ele>223.508</ele>
        <time>2011-07-02T11:27:04Z</time>
      </trkpt>
      <trkpt lat="60.901465" lon="15.159847">
        <ele>223.414</ele>
        <time>2011-07-02T11:27:08Z</time>
      </trkpt>
      <trkpt lat="60.901468" lon="15.159916">
        <ele>223.526</ele>
        <time>2011-07-02T11:27:10Z</time>
      </trkpt>
      <trkpt lat="60.901469" lon="15.160146">
        <ele>224.348</ele>
        <time>2011-07-02T11:27:16Z</time>
      </trkpt>
      <trkpt lat="60.901417" lon="15.160411">
        <ele>225.194</ele>
        <time>2011-07-02T11:27:22Z</time>
      </trkpt>
      <trkpt lat="60.901377" lon="15.160668">
        <ele>225.546</ele>
        <time>2011-07-02T11:27:28Z</time>
      </trkpt>
      <trkpt lat="60.901361" lon="15.160913">
        <ele>225.249</ele>
        <time>2011-07-02T11:27:33Z</time>
      </trkpt>
      <trkpt lat="60.901342" lon="15.161252">
        <ele>223.104</ele>
        <time>2011-07-02T11:27:39Z</time>
      </trkpt>
      <trkpt lat="60.901275" lon="15.161638">
        <ele>222.97</ele>
        <time>2011-07-02T11:27:46Z</time>
      </trkpt>
      <trkpt lat="60.901263" lon="15.161683">
        <ele>222.829</ele>
        <time>2011-07-02T11:27:47Z</time>
      </trkpt>
      <trkpt lat="60.901183" lon="15.16195">
        <ele>222.591</ele>
        <time>2011-07-02T11:27:54Z</time>
      </trkpt>
      <trkpt lat="60.901135" lon="15.162282">
        <ele>223.917</ele>
        <time>2011-07-02T11:28:00Z</time>
      </trkpt>
      <trkpt lat="60.901046" lon="15.162495">
        <ele>224.446</ele>
        <time>2011-07-02T11:28:04Z</time>
      </trkpt>
      <trkpt lat="60.900981" lon="15.162667">
        <ele>224.339</ele>
        <time>2011-07-02T11:28:08Z</time>
      </trkpt>
      <trkpt lat="60.900819" lon="15.162895">
        <ele>224.323</ele>
        <time>2011-07-02T11:28:16Z</time>
      </trkpt>
      <trkpt lat="60.900773" lon="15.162928">
        <ele>224.166</ele>
        <time>2011-07-02T11:28:19Z</time>
      </trkpt>
      <trkpt lat="60.900728" lon="15.162785">
        <ele>224.419</ele>
        <time>2011-07-02T11:28:24Z</time>
      </trkpt>
      <trkpt lat="60.900744" lon="15.16264">
        <ele>223.758</ele>
        <time>2011-07-02T11:28:27Z</time>
      </trkpt>
      <trkpt lat="60.900769" lon="15.162299">
        <ele>223.769</ele>
        <time>2011-07-02T11:28:34Z</time>
      </trkpt>
      <trkpt lat="60.90078" lon="15.161974">
        <ele>223.244</ele>
        <time>2011-07-02T11:28:40Z</time>
      </trkpt>
      <trkpt lat="60.900756" lon="15.161731">
        <ele>224.297</ele>
        <time>2011-07-02T11:28:45Z</time>
      </trkpt>
      <trkpt lat="60.900737" lon="15.161523">
        <ele>223.84</ele>
        <time>2011-07-02T11:28:49Z</time>
      </trkpt>
      <trkpt lat="60.900711" lon="15.161205">
        <ele>223.855</ele>
        <time>2011-07-02T11:28:55Z</time>
      </trkpt>
      <trkpt lat="60.900701" lon="15.161119">
        <ele>223.611</ele>
        <time>2011-07-02T11:28:57Z</time>
      </trkpt>
      <trkpt lat="60.900677" lon="15.160811">
        <ele>223.19</ele>
        <time>2011-07-02T11:29:02Z</time>
      </trkpt>
      <trkpt lat="60.900635" lon="15.16047">
        <ele>222.924</ele>
        <time>2011-07-02T11:29:08Z</time>
      </trkpt>
      <trkpt lat="60.900599" lon="15.160237">
        <ele>222.712</ele>
        <time>2011-07-02T11:29:13Z</time>
      </trkpt>
      <trkpt lat="60.900579" lon="15.159988">
        <ele>222.681</ele>
        <time>2011-07-02T11:29:18Z</time>
      </trkpt>
      <trkpt lat="60.900537" lon="15.159676">
        <ele>222.694</ele>
        <time>2011-07-02T11:29:24Z</time>
      </trkpt>
      <trkpt lat="60.900483" lon="15.159417">
        <ele>222.436</ele>
        <time>2011-07-02T11:29:29Z</time>
      </trkpt>
      <trkpt lat="60.900421" lon="15.159223">
        <ele>221.813</ele>
        <time>2011-07-02T11:29:33Z</time>
      </trkpt>
      <trkpt lat="60.900409" lon="15.159168">
        <ele>221.632</ele>
        <time>2011-07-02T11:29:34Z</time>
      </trkpt>
      <trkpt lat="60.90044" lon="15.158943">
        <ele>221.758</ele>
        <time>2011-07-02T11:29:38Z</time>
      </trkpt>
      <trkpt lat="60.900529" lon="15.158743">
        <ele>223.03</ele>
        <time>2011-07-02T11:29:44Z</time>
      </trkpt>
      <trkpt lat="60.90059" lon="15.158558">
        <ele>228.483</ele>
        <time>2011-07-02T11:29:48Z</time>
      </trkpt>
      <trkpt lat="60.900661" lon="15.158323">
        <ele>221.421</ele>
        <time>2011-07-02T11:29:53Z</time>
      </trkpt>
      <trkpt lat="60.900695" lon="15.158095">
        <ele>223.317</ele>
        <time>2011-07-02T11:29:58Z</time>
      </trkpt>
      <trkpt lat="60.900707" lon="15.157896">
        <ele>223.965</ele>
        <time>2011-07-02T11:30:03Z</time>
      </trkpt>
      <trkpt lat="60.900724" lon="15.157645">
        <ele>223.098</ele>
        <time>2011-07-02T11:30:08Z</time>
      </trkpt>
      <trkpt lat="60.90076" lon="15.157387">
        <ele>222.167</ele>
        <time>2011-07-02T11:30:12Z</time>
      </trkpt>
      <trkpt lat="60.900838" lon="15.157223">
        <ele>222.001</ele>
        <time>2011-07-02T11:30:16Z</time>
      </trkpt>
      <trkpt lat="60.900907" lon="15.156847">
        <ele>220.677</ele>
        <time>2011-07-02T11:30:22Z</time>
      </trkpt>
      <trkpt lat="60.900931" lon="15.156507">
        <ele>220.32</ele>
        <time>2011-07-02T11:30:28Z</time>
      </trkpt>
      <trkpt lat="60.900944" lon="15.156331">
        <ele>219.754</ele>
        <time>2011-07-02T11:30:32Z</time>
      </trkpt>
      <trkpt lat="60.90094" lon="15.156029">
        <ele>218.411</ele>
        <time>2011-07-02T11:30:38Z</time>
      </trkpt>
      <trkpt lat="60.900924" lon="15.155623">
        <ele>218.146</ele>
        <time>2011-07-02T11:30:44Z</time>
      </trkpt>
      <trkpt lat="60.900907" lon="15.155163">
        <ele>217.513</ele>
        <time>2011-07-02T11:30:51Z</time>
      </trkpt>
      <trkpt lat="60.900857" lon="15.154892">
        <ele>217.159</ele>
        <time>2011-07-02T11:30:56Z</time>
      </trkpt>
      <trkpt lat="60.900778" lon="15.154693">
        <ele>217.056</ele>
        <time>2011-07-02T11:31:01Z</time>
      </trkpt>
      <trkpt lat="60.900737" lon="15.154524">
        <ele>217.473</ele>
        <time>2011-07-02T11:31:05Z</time>
      </trkpt>
      <trkpt lat="60.900701" lon="15.154458">
        <ele>217.445</ele>
        <time>2011-07-02T11:31:07Z</time>
      </trkpt>
      <trkpt lat="60.900642" lon="15.154216">
        <ele>216.652</ele>
        <time>2011-07-02T11:31:13Z</time>
      </trkpt>
      <trkpt lat="60.900589" lon="15.153973">
        <ele>216.599</ele>
        <time>2011-07-02T11:31:18Z</time>
      </trkpt>
      <trkpt lat="60.900547" lon="15.153656">
        <ele>215.899</ele>
        <time>2011-07-02T11:31:24Z</time>
      </trkpt>
      <trkpt lat="60.900499" lon="15.153383">
        <ele>215.798</ele>
        <time>2011-07-02T11:31:29Z</time>
      </trkpt>
      <trkpt lat="60.900439" lon="15.153119">
        <ele>215.389</ele>
        <time>2011-07-02T11:31:34Z</time>
      </trkpt>
      <trkpt lat="60.900426" lon="15.153077">
        <ele>215.418</ele>
        <time>2011-07-02T11:31:35Z</time>
      </trkpt>
      <trkpt lat="60.900341" lon="15.152885">
        <ele>216.303</ele>
        <time>2011-07-02T11:31:41Z</time>
      </trkpt>
      <trkpt lat="60.900291" lon="15.152705">
        <ele>217.587</ele>
        <time>2011-07-02T11:31:46Z</time>
      </trkpt>
      <trkpt lat="60.900193" lon="15.152504">
        <ele>218.886</ele>
        <time>2011-07-02T11:31:52Z</time>
      </trkpt>
      <trkpt lat="60.900133" lon="15.152427">
        <ele>219.812</ele>
        <time>2011-07-02T11:31:58Z</time>
      </trkpt>
      <trkpt lat="60.900099" lon="15.152339">
        <ele>220.242</ele>
        <time>2011-07-02T11:32:02Z</time>
      </trkpt>
      <trkpt lat="60.900101" lon="15.152316">
        <ele>220.335</ele>
        <time>2011-07-02T11:32:03Z</time>
      </trkpt>
      <trkpt lat="60.900073" lon="15.15208">
        <ele>220.011</ele>
        <time>2011-07-02T11:32:15Z</time>
      </trkpt>
      <trkpt lat="60.900068" lon="15.151989">
        <ele>219.37</ele>
        <time>2011-07-02T11:32:19Z</time>
      </trkpt>
      <trkpt lat="60.900066" lon="15.151848">
        <ele>218.61</ele>
        <time>2011-07-02T11:32:23Z</time>
      </trkpt>
      <trkpt lat="60.900054" lon="15.151574">
        <ele>217.056</ele>
        <time>2011-07-02T11:32:35Z</time>
      </trkpt>
      <trkpt lat="60.900016" lon="15.151107">
        <ele>216.118</ele>
        <time>2011-07-02T11:32:55Z</time>
      </trkpt>
      <trkpt lat="60.90004" lon="15.150969">
        <ele>215.874</ele>
        <time>2011-07-02T11:33:00Z</time>
      </trkpt>
      <trkpt lat="60.900036" lon="15.150848">
        <ele>215.931</ele>
        <time>2011-07-02T11:33:05Z</time>
      </trkpt>
      <trkpt lat="60.899938" lon="15.15043">
        <ele>213.534</ele>
        <time>2011-07-02T11:33:23Z</time>
      </trkpt>
      <trkpt lat="60.899915" lon="15.150165">
        <ele>210.367</ele>
        <time>2011-07-02T11:33:28Z</time>
      </trkpt>
      <trkpt lat="60.899837" lon="15.149961">
        <ele>209.369</ele>
        <time>2011-07-02T11:33:33Z</time>
      </trkpt>
      <trkpt lat="60.899787" lon="15.149845">
        <ele>209.39</ele>
        <time>2011-07-02T11:33:38Z</time>
      </trkpt>
      <trkpt lat="60.899787" lon="15.149775">
        <ele>209.867</ele>
        <time>2011-07-02T11:33:40Z</time>
      </trkpt>
      <trkpt lat="60.899794" lon="15.149465">
        <ele>211.098</ele>
        <time>2011-07-02T11:33:46Z</time>
      </trkpt>
      <trkpt lat="60.899805" lon="15.149287">
        <ele>210.466</ele>
        <time>2011-07-02T11:33:49Z</time>
      </trkpt>
      <trkpt lat="60.899822" lon="15.149184">
        <ele>210.602</ele>
        <time>2011-07-02T11:33:52Z</time>
      </trkpt>
      <trkpt lat="60.899827" lon="15.148951">
        <ele>209.224</ele>
        <time>2011-07-02T11:33:57Z</time>
      </trkpt>
      <trkpt lat="60.899826" lon="15.148896">
        <ele>209.166</ele>
        <time>2011-07-02T11:33:58Z</time>
      </trkpt>
      <trkpt lat="60.89983" lon="15.148788">
        <ele>208.91</ele>
        <time>2011-07-02T11:34:00Z</time>
      </trkpt>
      <trkpt lat="60.899824" lon="15.148577">
        <ele>208.695</ele>
        <time>2011-07-02T11:34:04Z</time>
      </trkpt>
      <trkpt lat="60.89985" lon="15.148435">
        <ele>208.605</ele>
        <time>2011-07-02T11:34:07Z</time>
      </trkpt>
      <trkpt lat="60.899889" lon="15.148183">
        <ele>208.341</ele>
        <time>2011-07-02T11:34:12Z</time>
      </trkpt>
      <trkpt lat="60.899904" lon="15.148073">
        <ele>208.215</ele>
        <time>2011-07-02T11:34:14Z</time>
      </trkpt>
      <trkpt lat="60.899918" lon="15.147619">
        <ele>207.815</ele>
        <time>2011-07-02T11:34:22Z</time>
      </trkpt>
      <trkpt lat="60.899928" lon="15.147322">
        <ele>207.262</ele>
        <time>2011-07-02T11:34:27Z</time>
      </trkpt>
      <trkpt lat="60.8999" lon="15.147001">
        <ele>207.173</ele>
        <time>2011-07-02T11:34:32Z</time>
      </trkpt>
      <trkpt lat="60.899906" lon="15.146783">
        <ele>207.004</ele>
        <time>2011-07-02T11:34:37Z</time>
      </trkpt>
      <trkpt lat="60.899919" lon="15.146439">
        <ele>206.855</ele>
        <time>2011-07-02T11:34:44Z</time>
      </trkpt>
      <trkpt lat="60.89996" lon="15.146223">
        <ele>206.865</ele>
        <time>2011-07-02T11:34:49Z</time>
      </trkpt>
      <trkpt lat="60.899959" lon="15.146148">
        <ele>206.918</ele>
        <time>2011-07-02T11:34:51Z</time>
      </trkpt>
      <trkpt lat="60.899965" lon="15.145867">
        <ele>206.901</ele>
        <time>2011-07-02T11:34:57Z</time>
      </trkpt>
      <trkpt lat="60.899967" lon="15.14582">
        <ele>206.921</ele>
        <time>2011-07-02T11:34:58Z</time>
      </trkpt>
      <trkpt lat="60.900016" lon="15.145478">
        <ele>206.777</ele>
        <time>2011-07-02T11:35:05Z</time>
      </trkpt>
      <trkpt lat="60.900031" lon="15.145421">
        <ele>206.764</ele>
        <time>2011-07-02T11:35:06Z</time>
      </trkpt>
      <trkpt lat="60.900047" lon="15.145077">
        <ele>206.72</ele>
        <time>2011-07-02T11:35:12Z</time>
      </trkpt>
      <trkpt lat="60.90001" lon="15.144838">
        <ele>206.763</ele>
        <time>2011-07-02T11:35:16Z</time>
      </trkpt>
      <trkpt lat="60.899866" lon="15.144663">
        <ele>206.165</ele>
        <time>2011-07-02T11:35:22Z</time>
      </trkpt>
      <trkpt lat="60.899811" lon="15.144625">
        <ele>205.911</ele>
        <time>2011-07-02T11:35:24Z</time>
      </trkpt>
      <trkpt lat="60.899615" lon="15.144389">
        <ele>205.079</ele>
        <time>2011-07-02T11:35:31Z</time>
      </trkpt>
      <trkpt lat="60.899412" lon="15.144227">
        <ele>204.688</ele>
        <time>2011-07-02T11:35:38Z</time>
      </trkpt>
      <trkpt lat="60.899288" lon="15.144053">
        <ele>203.689</ele>
        <time>2011-07-02T11:35:43Z</time>
      </trkpt>
      <trkpt lat="60.899274" lon="15.144001">
        <ele>203.527</ele>
        <time>2011-07-02T11:35:44Z</time>
      </trkpt>
      <trkpt lat="60.899235" lon="15.143724">
        <ele>203.128</ele>
        <time>2011-07-02T11:35:49Z</time>
      </trkpt>
      <trkpt lat="60.899156" lon="15.14337">
        <ele>203.361</ele>
        <time>2011-07-02T11:35:54Z</time>
      </trkpt>
      <trkpt lat="60.899141" lon="15.143284">
        <ele>203.451</ele>
        <time>2011-07-02T11:35:57Z</time>
      </trkpt>
      <trkpt lat="60.899122" lon="15.143124">
        <ele>203.314</ele>
        <time>2011-07-02T11:36:04Z</time>
      </trkpt>
      <trkpt lat="60.899124" lon="15.143098">
        <ele>203.282</ele>
        <time>2011-07-02T11:36:05Z</time>
      </trkpt>
      <trkpt lat="60.899127" lon="15.142967">
        <ele>203.272</ele>
        <time>2011-07-02T11:36:08Z</time>
      </trkpt>
      <trkpt lat="60.89912" lon="15.14264">
        <ele>203.444</ele>
        <time>2011-07-02T11:36:14Z</time>
      </trkpt>
      <trkpt lat="60.899121" lon="15.1426">
        <ele>203.427</ele>
        <time>2011-07-02T11:36:15Z</time>
      </trkpt>
      <trkpt lat="60.89911" lon="15.142317">
        <ele>203.611</ele>
        <time>2011-07-02T11:36:20Z</time>
      </trkpt>
      <trkpt lat="60.8991" lon="15.142013">
        <ele>203.717</ele>
        <time>2011-07-02T11:36:26Z</time>
      </trkpt>
      <trkpt lat="60.899076" lon="15.141728">
        <ele>203.754</ele>
        <time>2011-07-02T11:36:31Z</time>
      </trkpt>
      <trkpt lat="60.899016" lon="15.141454">
        <ele>203.581</ele>
        <time>2011-07-02T11:36:36Z</time>
      </trkpt>
      <trkpt lat="60.898999" lon="15.141184">
        <ele>203.565</ele>
        <time>2011-07-02T11:36:41Z</time>
      </trkpt>
      <trkpt lat="60.898974" lon="15.140984">
        <ele>203.624</ele>
        <time>2011-07-02T11:36:46Z</time>
      </trkpt>
      <trkpt lat="60.898953" lon="15.14079">
        <ele>203.517</ele>
        <time>2011-07-02T11:36:52Z</time>
      </trkpt>
      <trkpt lat="60.898968" lon="15.140677">
        <ele>203.561</ele>
        <time>2011-07-02T11:36:57Z</time>
      </trkpt>
      <trkpt lat="60.898984" lon="15.140505">
        <ele>203.551</ele>
        <time>2011-07-02T11:37:04Z</time>
      </trkpt>
      <trkpt lat="60.898986" lon="15.14041">
        <ele>203.729</ele>
        <time>2011-07-02T11:37:08Z</time>
      </trkpt>
      <trkpt lat="60.898971" lon="15.140247">
        <ele>203.744</ele>
        <time>2011-07-02T11:37:15Z</time>
      </trkpt>
      <trkpt lat="60.898973" lon="15.140124">
        <ele>203.67</ele>
        <time>2011-07-02T11:37:20Z</time>
      </trkpt>
      <trkpt lat="60.898957" lon="15.139992">
        <ele>203.579</ele>
        <time>2011-07-02T11:37:25Z</time>
      </trkpt>
      <trkpt lat="60.898922" lon="15.139704">
        <ele>203.363</ele>
        <time>2011-07-02T11:37:32Z</time>
      </trkpt>
      <trkpt lat="60.898919" lon="15.13967">
        <ele>203.428</ele>
        <time>2011-07-02T11:37:33Z</time>
      </trkpt>
      <trkpt lat="60.898928" lon="15.139531">
        <ele>203.596</ele>
        <time>2011-07-02T11:37:37Z</time>
      </trkpt>
      <trkpt lat="60.898913" lon="15.139199">
        <ele>203.708</ele>
        <time>2011-07-02T11:37:43Z</time>
      </trkpt>
      <trkpt lat="60.8989" lon="15.139097">
        <ele>204.335</ele>
        <time>2011-07-02T11:37:46Z</time>
      </trkpt>
    </trkseg>
  </trk>
</gpx>